Time;durP1;ratioP1;P1;durP2;ratioP2;P2;SDS_P1;SDS_P2;PMS_P1;PMS_P2;Temp;Humidity;BMP_temperature;BMP_pressure;BME280_temperature;BME280_humidity;BME280_pressure;Samples;Min_cycle;Max_cycle;Signal;HPM_P1;HPM_P2
2023/09/21 00:00:38;;;;;;;1.85;1.30;;;;;;;;;;4972718;28;20598;-72
2023/09/21 00:03:07;;;;;;;4.35;1.35;;;;;;;;;;4996759;28;20224;-72
2023/09/21 00:05:37;;;;;;;3.42;1.50;;;;;;;;;;4990350;28;20296;-72
2023/09/21 00:08:06;;;;;;;1.40;1.30;;;;;;;;;;4999171;28;20681;-72
2023/09/21 00:10:34;;;;;;;2.25;1.67;;;;;;;;;;5006788;28;20249;-71
2023/09/21 00:13:00;;;;;;;2.10;1.50;;;;;;;;;;4992882;28;20226;-71
2023/09/21 00:15:27;;;;;;;1.73;1.38;;;;;;;;;;5009406;28;20646;-72
2023/09/21 00:17:55;;;;;;;2.00;1.60;;;;;;;;;;4991780;28;20644;-71
2023/09/21 00:20:25;;;;;;;1.48;1.38;;;;;;;;;;5000347;28;20210;-73
2023/09/21 00:22:55;;;;;;;1.40;1.30;;;;;;;;;;4978826;28;20220;-72
2023/09/21 00:25:25;;;;;;;1.90;1.40;;;;;;;;;;4975957;28;20259;-72
2023/09/21 00:27:51;;;;;;;1.52;1.20;;;;;;;;;;4992480;28;20325;-72
2023/09/21 00:30:19;;;;;;;2.97;1.30;;;;;;;;;;4976818;28;20236;-71
2023/09/21 00:32:47;;;;;;;1.40;1.25;;;;;;;;;;4994711;28;20224;-72
2023/09/21 00:35:16;;;;;;;1.55;1.45;;;;;;;;;;5008687;28;20220;-72
2023/09/21 00:37:49;;;;;;;1.60;1.40;;;;;;;;;;4988670;28;20217;-70
2023/09/21 00:40:20;;;;;;;1.30;1.20;;;;;;;;;;4992152;28;20233;-72
2023/09/21 00:45:15;;;;;;;1.40;1.20;;;;;;;;;;4971043;28;20227;-85
2023/09/21 00:47:49;;;;;;;2.08;1.33;;;;;;;;;;4957230;28;20241;-85
2023/09/21 00:50:20;;;;;;;2.25;1.30;;;;;;;;;;4957586;28;20225;-86
2023/09/21 00:52:46;;;;;;;1.98;1.63;;;;;;;;;;4926858;28;20301;-85
2023/09/21 00:55:14;;;;;;;1.70;1.60;;;;;;;;;;4942672;28;20249;-85
2023/09/21 00:57:43;;;;;;;1.67;1.30;;;;;;;;;;4939647;28;20226;-87
2023/09/21 01:00:13;;;;;;;3.47;1.38;;;;;;;;;;4945577;28;20512;-86
2023/09/21 01:02:42;;;;;;;1.83;1.55;;;;;;;;;;4956707;28;20610;-86
2023/09/21 01:05:16;;;;;;;1.92;1.40;;;;;;;;;;4943437;28;20245;-86
2023/09/21 01:07:42;;;;;;;1.48;1.30;;;;;;;;;;4942793;28;20228;-88
2023/09/21 01:10:13;;;;;;;2.13;1.40;;;;;;;;;;4954150;28;20221;-88
2023/09/21 01:12:40;;;;;;;3.42;1.55;;;;;;;;;;4948120;28;20234;-86
2023/09/21 01:15:09;;;;;;;1.40;1.30;;;;;;;;;;4927682;28;20226;-86
2023/09/21 01:17:39;;;;;;;1.13;1.02;;;;;;;;;;4925947;28;20725;-86
2023/09/21 01:20:22;;;;;;;2.70;1.50;;;;;;;;;;4941227;28;20234;-86
2023/09/21 01:23:14;;;;;;;2.75;1.90;;;;;;;;;;4948477;28;20232;-86
2023/09/21 01:25:45;;;;;;;2.03;1.48;;;;;;;;;;4953671;28;20231;-87
2023/09/21 01:28:16;;;;;;;1.65;1.30;;;;;;;;;;4932414;28;20226;-83
2023/09/21 01:30:43;;;;;;;3.20;1.63;;;;;;;;;;4954735;28;20230;-86
2023/09/21 01:33:11;;;;;;;2.33;1.45;;;;;;;;;;4940956;28;20223;-88
2023/09/21 01:35:43;;;;;;;1.98;1.40;;;;;;;;;;4925473;28;20308;-87
2023/09/21 01:38:12;;;;;;;1.63;1.40;;;;;;;;;;4929125;28;20245;-83
2023/09/21 01:40:41;;;;;;;2.05;1.63;;;;;;;;;;4943190;28;20244;-87
2023/09/21 01:43:15;;;;;;;2.45;1.50;;;;;;;;;;4944318;28;20229;-87
2023/09/21 01:45:42;;;;;;;1.50;1.40;;;;;;;;;;4944338;28;20239;-86
2023/09/21 01:48:08;;;;;;;2.80;1.40;;;;;;;;;;4943255;28;20692;-87
2023/09/21 01:50:43;;;;;;;2.15;1.30;;;;;;;;;;4944511;28;20234;-86
2023/09/21 01:53:19;;;;;;;3.17;1.58;;;;;;;;;;4943874;28;20226;-86
2023/09/21 01:55:47;;;;;;;1.50;1.35;;;;;;;;;;4944489;28;20316;-86
2023/09/21 01:58:16;;;;;;;3.67;1.48;;;;;;;;;;4929106;28;20218;-87
2023/09/21 02:00:50;;;;;;;1.67;1.58;;;;;;;;;;4945523;28;20222;-86
2023/09/21 02:03:20;;;;;;;2.30;1.52;;;;;;;;;;4937651;28;20352;-86
2023/09/21 02:05:48;;;;;;;2.50;1.50;;;;;;;;;;4927634;29;20227;-86
2023/09/21 02:08:18;;;;;;;2.60;1.52;;;;;;;;;;4953210;28;20230;-83
2023/09/21 02:10:44;;;;;;;2.03;1.83;;;;;;;;;;4959461;28;20226;-84
2023/09/21 02:13:12;;;;;;;1.50;1.40;;;;;;;;;;4971721;28;20209;-83
2023/09/21 02:15:38;;;;;;;1.50;1.20;;;;;;;;;;4942339;28;21174;-87
2023/09/21 02:18:05;;;;;;;3.15;1.77;;;;;;;;;;4952349;28;20230;-85
2023/09/21 02:20:31;;;;;;;2.25;1.45;;;;;;;;;;4924417;29;20238;-87
2023/09/21 02:23:02;;;;;;;2.85;1.80;;;;;;;;;;4940575;28;20689;-87
2023/09/21 02:25:30;;;;;;;1.58;1.48;;;;;;;;;;4957633;28;20226;-83
2023/09/21 02:27:58;;;;;;;1.90;1.40;;;;;;;;;;4930163;28;20261;-87
2023/09/21 02:30:24;;;;;;;1.95;1.48;;;;;;;;;;4926158;28;20227;-87
2023/09/21 02:32:51;;;;;;;1.85;1.48;;;;;;;;;;4924854;28;20218;-87
2023/09/21 02:35:24;;;;;;;4.68;1.88;;;;;;;;;;4942032;28;20637;-88
2023/09/21 02:37:53;;;;;;;1.70;1.55;;;;;;;;;;4958300;28;20225;-85
2023/09/21 02:40:23;;;;;;;1.88;1.60;;;;;;;;;;4924298;28;20222;-85
2023/09/21 02:42:53;;;;;;;3.35;1.70;;;;;;;;;;4928139;28;20283;-86
2023/09/21 02:45:24;;;;;;;1.98;1.88;;;;;;;;;;4970798;28;20229;-87
2023/09/21 02:47:58;;;;;;;2.17;1.60;;;;;;;;;;4944156;28;20234;-86
2023/09/21 02:50:27;;;;;;;1.38;1.27;;;;;;;;;;4926914;28;20252;-86
2023/09/21 02:52:56;;;;;;;2.47;1.63;;;;;;;;;;4924619;28;20598;-88
2023/09/21 02:55:29;;;;;;;3.58;1.65;;;;;;;;;;4944790;28;20219;-85
2023/09/21 02:57:58;;;;;;;2.38;1.77;;;;;;;;;;4940738;28;20244;-86
2023/09/21 03:03:04;;;;;;;2.55;1.52;;;;;;;;;;4953428;28;20233;-86
2023/09/21 03:05:34;;;;;;;2.08;1.58;;;;;;;;;;4927518;28;20261;-86
2023/09/21 03:08:09;;;;;;;1.90;1.75;;;;;;;;;;4938300;28;20238;-87
2023/09/21 03:10:37;;;;;;;1.70;1.60;;;;;;;;;;4942012;28;20226;-84
2023/09/21 03:13:03;;;;;;;1.88;1.67;;;;;;;;;;4949268;28;20484;-84
2023/09/21 03:15:34;;;;;;;1.60;1.50;;;;;;;;;;4936607;29;20780;-86
2023/09/21 03:18:00;;;;;;;3.22;1.83;;;;;;;;;;4945478;28;20223;-84
2023/09/21 03:22:55;;;;;;;2.40;1.63;;;;;;;;;;4939194;29;20692;-86
2023/09/21 03:25:25;;;;;;;2.38;1.77;;;;;;;;;;4925068;28;20469;-86
2023/09/21 03:27:59;;;;;;;2.00;1.80;;;;;;;;;;4950835;29;20276;-86
2023/09/21 03:30:27;;;;;;;1.75;1.63;;;;;;;;;;4917158;28;20229;-85
2023/09/21 03:32:53;;;;;;;2.50;1.92;;;;;;;;;;4922854;28;20857;-86
2023/09/21 03:35:21;;;;;;;2.50;2.28;;;;;;;;;;4936949;28;20311;-85
2023/09/21 03:37:53;;;;;;;2.53;1.90;;;;;;;;;;4911621;29;20868;-85
2023/09/21 03:40:19;;;;;;;4.20;1.75;;;;;;;;;;4951668;28;20245;-80
2023/09/21 03:42:47;;;;;;;1.75;1.60;;;;;;;;;;4947127;28;20644;-79
2023/09/21 03:45:15;;;;;;;1.60;1.50;;;;;;;;;;4945545;28;20245;-78
2023/09/21 03:47:42;;;;;;;1.98;1.70;;;;;;;;;;4921405;28;20324;-79
2023/09/21 03:50:12;;;;;;;2.22;2.03;;;;;;;;;;4936298;28;20715;-77
2023/09/21 03:52:39;;;;;;;2.17;1.67;;;;;;;;;;4920728;28;20226;-77
2023/09/21 03:55:09;;;;;;;2.45;1.92;;;;;;;;;;4957459;28;20231;-79
2023/09/21 03:57:35;;;;;;;3.53;1.80;;;;;;;;;;4942845;28;20233;-79
2023/09/21 04:04:04;;;;;;;2.67;1.80;;;;;;;;;;4961406;28;20241;-78
2023/09/21 04:06:32;;;;;;;2.70;1.88;;;;;;;;;;4943346;28;20334;-79
2023/09/21 04:08:59;;;;;;;2.10;1.70;;;;;;;;;;4953843;28;20231;-79
2023/09/21 04:11:28;;;;;;;2.22;1.90;;;;;;;;;;4964209;28;20229;-79
2023/09/21 04:13:53;;;;;;;2.00;1.70;;;;;;;;;;4943363;28;20246;-79
2023/09/21 04:16:19;;;;;;;3.10;1.80;;;;;;;;;;4955540;28;20225;-79
2023/09/21 04:18:47;;;;;;;3.72;2.03;;;;;;;;;;4941489;28;20254;-79
2023/09/21 04:21:13;;;;;;;2.65;1.40;;;;;;;;;;4933110;28;20251;-77
2023/09/21 04:23:38;;;;;;;1.98;1.77;;;;;;;;;;4963727;28;20241;-76
2023/09/21 04:26:04;;;;;;;2.40;1.90;;;;;;;;;;4953698;28;20218;-77
2023/09/21 04:28:30;;;;;;;2.03;1.83;;;;;;;;;;4958001;28;20284;-78
2023/09/21 04:31:00;;;;;;;1.67;1.55;;;;;;;;;;4941825;28;20226;-76
2023/09/21 04:33:25;;;;;;;2.00;1.90;;;;;;;;;;4965640;28;20298;-76
2023/09/21 04:35:51;;;;;;;1.88;1.67;;;;;;;;;;4976516;28;20328;-76
2023/09/21 04:38:16;;;;;;;2.90;1.90;;;;;;;;;;4970982;28;20218;-78
2023/09/21 04:40:46;;;;;;;1.67;1.58;;;;;;;;;;4936746;28;20274;-79
2023/09/21 04:43:13;;;;;;;2.42;1.75;;;;;;;;;;4938354;28;20314;-78
2023/09/21 04:45:38;;;;;;;1.85;1.75;;;;;;;;;;4921675;28;20615;-79
2023/09/21 04:48:04;;;;;;;1.85;1.75;;;;;;;;;;4940313;28;20231;-77
2023/09/21 04:50:34;;;;;;;2.10;1.70;;;;;;;;;;4932807;28;20851;-78
2023/09/21 04:52:59;;;;;;;1.70;1.60;;;;;;;;;;4953598;28;20233;-77
2023/09/21 04:55:25;;;;;;;2.22;1.60;;;;;;;;;;4947459;28;20230;-79
2023/09/21 04:57:52;;;;;;;4.22;1.90;;;;;;;;;;4969331;28;20253;-76
2023/09/21 05:00:20;;;;;;;1.88;1.77;;;;;;;;;;4956734;28;20597;-76
2023/09/21 05:02:45;;;;;;;2.10;1.95;;;;;;;;;;4934782;28;20229;-76
2023/09/21 05:05:17;;;;;;;5.30;2.08;;;;;;;;;;4946933;28;20230;-78
2023/09/21 05:07:42;;;;;;;2.00;1.85;;;;;;;;;;4933063;28;20235;-77
2023/09/21 05:10:11;;;;;;;2.95;1.80;;;;;;;;;;4919396;28;20226;-78
2023/09/21 05:12:39;;;;;;;2.05;1.92;;;;;;;;;;4957454;28;20229;-78
2023/09/21 05:15:06;;;;;;;2.20;2.00;;;;;;;;;;4928997;28;20307;-79
2023/09/21 05:17:32;;;;;;;1.77;1.67;;;;;;;;;;4948697;28;20227;-81
2023/09/21 05:20:00;;;;;;;1.75;1.65;;;;;;;;;;4959769;28;20218;-78
2023/09/21 05:22:26;;;;;;;3.40;2.03;;;;;;;;;;4935309;28;20223;-77
2023/09/21 05:24:51;;;;;;;1.60;1.50;;;;;;;;;;4962200;28;20565;-77
2023/09/21 05:27:17;;;;;;;2.35;2.15;;;;;;;;;;4965209;28;20218;-77
2023/09/21 05:29:43;;;;;;;3.92;1.90;;;;;;;;;;4917043;28;20242;-76
2023/09/21 05:32:08;;;;;;;2.03;1.92;;;;;;;;;;4953513;28;20223;-78
2023/09/21 05:34:36;;;;;;;4.20;1.83;;;;;;;;;;4954041;28;20226;-80
2023/09/21 05:37:07;;;;;;;2.88;1.83;;;;;;;;;;4919404;28;20222;-76
2023/09/21 05:39:32;;;;;;;1.80;1.70;;;;;;;;;;4934217;28;20310;-77
2023/09/21 05:41:58;;;;;;;2.42;2.22;;;;;;;;;;4936060;29;20219;-78
2023/09/21 05:44:25;;;;;;;2.35;1.58;;;;;;;;;;4952164;28;20235;-76
2023/09/21 05:46:51;;;;;;;2.45;1.85;;;;;;;;;;4953221;28;20222;-76
2023/09/21 05:49:22;;;;;;;2.95;1.92;;;;;;;;;;4939948;28;20281;-78
2023/09/21 05:51:56;;;;;;;3.20;1.83;;;;;;;;;;4919079;28;20223;-79
2023/09/21 05:54:25;;;;;;;2.42;1.90;;;;;;;;;;4932746;28;20282;-79
2023/09/21 05:56:53;;;;;;;1.92;1.83;;;;;;;;;;4948711;28;20277;-80
2023/09/21 05:59:19;;;;;;;2.50;1.77;;;;;;;;;;4930842;28;20219;-81
2023/09/21 06:01:48;;;;;;;1.92;1.83;;;;;;;;;;4927813;28;20213;-80
2023/09/21 06:04:16;;;;;;;3.40;1.63;;;;;;;;;;4962595;28;20226;-79
2023/09/21 06:06:45;;;;;;;2.33;2.10;;;;;;;;;;4955260;28;20630;-78
2023/09/21 06:09:12;;;;;;;2.13;1.92;;;;;;;;;;4982132;28;20268;-78
2023/09/21 06:11:38;;;;;;;3.17;1.80;;;;;;;;;;4951235;28;20233;-80
2023/09/21 06:14:04;;;;;;;2.17;1.80;;;;;;;;;;4915860;28;20684;-80
2023/09/21 06:16:32;;;;;;;3.38;2.13;;;;;;;;;;4918012;28;20228;-80
2023/09/21 06:18:58;;;;;;;2.70;2.03;;;;;;;;;;4957808;28;20219;-79
2023/09/21 06:21:24;;;;;;;3.45;1.77;;;;;;;;;;4959772;28;20252;-79
2023/09/21 06:23:50;;;;;;;1.95;1.75;;;;;;;;;;4950078;28;20586;-78
2023/09/21 06:26:16;;;;;;;1.92;1.77;;;;;;;;;;4935517;28;20218;-80
2023/09/21 06:28:47;;;;;;;2.00;1.77;;;;;;;;;;4971811;28;20321;-80
2023/09/21 06:31:13;;;;;;;5.22;2.10;;;;;;;;;;4948840;28;20853;-78
2023/09/21 06:33:42;;;;;;;5.60;1.95;;;;;;;;;;4952181;28;21177;-80
2023/09/21 06:36:15;;;;;;;2.03;1.80;;;;;;;;;;4952391;28;20229;-77
2023/09/21 06:38:43;;;;;;;2.42;1.83;;;;;;;;;;4952996;28;20253;-79
2023/09/21 06:41:09;;;;;;;4.30;2.08;;;;;;;;;;4958809;28;20219;-80
2023/09/21 06:43:37;;;;;;;5.85;1.95;;;;;;;;;;4935263;28;20224;-80
2023/09/21 06:46:05;;;;;;;3.40;1.52;;;;;;;;;;4951758;28;20302;-78
2023/09/21 06:48:30;;;;;;;2.10;1.83;;;;;;;;;;4955008;28;20230;-79
2023/09/21 06:50:56;;;;;;;1.92;1.75;;;;;;;;;;4972214;28;20236;-78
2023/09/21 06:53:23;;;;;;;2.75;2.00;;;;;;;;;;4921411;28;20277;-78
2023/09/21 06:55:49;;;;;;;2.67;1.75;;;;;;;;;;4949770;28;20218;-79
2023/09/21 06:58:17;;;;;;;1.50;1.40;;;;;;;;;;4940444;28;20218;-78
2023/09/21 07:00:45;;;;;;;1.85;1.60;;;;;;;;;;4958406;28;20222;-78
2023/09/21 07:03:11;;;;;;;1.77;1.67;;;;;;;;;;4970757;28;20358;-78
2023/09/21 07:05:36;;;;;;;3.03;1.63;;;;;;;;;;4927448;28;20610;-78
2023/09/21 07:08:02;;;;;;;3.28;1.65;;;;;;;;;;4938785;28;20964;-77
2023/09/21 07:10:28;;;;;;;2.17;1.70;;;;;;;;;;4953727;28;20284;-77
2023/09/21 07:12:54;;;;;;;1.92;1.52;;;;;;;;;;4939484;28;20262;-77
2023/09/21 07:15:19;;;;;;;2.72;1.83;;;;;;;;;;4971025;28;20210;-76
2023/09/21 07:17:47;;;;;;;1.55;1.45;;;;;;;;;;4959767;28;20703;-78
2023/09/21 07:20:13;;;;;;;3.08;1.80;;;;;;;;;;4921612;28;20225;-80
2023/09/21 07:22:38;;;;;;;3.08;1.80;;;;;;;;;;4951302;28;20221;-80
2023/09/21 07:25:04;;;;;;;1.55;1.45;;;;;;;;;;4940010;28;20309;-78
2023/09/21 07:27:30;;;;;;;2.53;1.73;;;;;;;;;;4966064;28;20225;-80
2023/09/21 07:29:58;;;;;;;2.00;1.80;;;;;;;;;;4948605;28;20273;-79
2023/09/21 07:32:25;;;;;;;1.75;1.60;;;;;;;;;;4935730;28;20214;-80
2023/09/21 07:34:51;;;;;;;1.60;1.40;;;;;;;;;;4952831;28;21052;-80
2023/09/21 07:37:17;;;;;;;4.03;1.70;;;;;;;;;;4967066;28;20214;-78
2023/09/21 07:39:42;;;;;;;2.22;1.90;;;;;;;;;;4970436;28;20236;-78
2023/09/21 07:42:09;;;;;;;2.20;1.58;;;;;;;;;;4944466;28;20289;-77
2023/09/21 07:44:37;;;;;;;2.10;1.75;;;;;;;;;;4928492;28;20230;-77
2023/09/21 07:47:02;;;;;;;2.17;1.65;;;;;;;;;;4941958;28;20219;-77
2023/09/21 07:49:28;;;;;;;1.90;1.50;;;;;;;;;;4937494;28;20305;-77
2023/09/21 07:51:56;;;;;;;1.58;1.48;;;;;;;;;;4965641;28;20219;-79
2023/09/21 07:54:22;;;;;;;1.90;1.58;;;;;;;;;;4965876;28;20210;-78
2023/09/21 07:56:50;;;;;;;3.13;1.48;;;;;;;;;;4950149;28;20221;-79
2023/09/21 07:59:16;;;;;;;3.58;1.58;;;;;;;;;;4935627;28;20223;-78
2023/09/21 08:01:44;;;;;;;2.50;1.60;;;;;;;;;;4952238;28;20218;-78
2023/09/21 08:04:10;;;;;;;1.70;1.48;;;;;;;;;;4947113;28;20214;-77
2023/09/21 08:06:38;;;;;;;6.80;1.70;;;;;;;;;;4934519;28;20234;-78
2023/09/21 08:09:04;;;;;;;1.40;1.30;;;;;;;;;;4943661;28;20219;-79
2023/09/21 08:11:33;;;;;;;2.20;1.35;;;;;;;;;;4946018;28;20377;-78
2023/09/21 08:13:58;;;;;;;1.83;1.63;;;;;;;;;;4936061;28;20219;-77
2023/09/21 08:16:29;;;;;;;1.40;1.30;;;;;;;;;;4943235;28;20234;-78
2023/09/21 08:18:54;;;;;;;1.35;1.27;;;;;;;;;;4944274;28;20241;-78
2023/09/21 08:21:20;;;;;;;3.08;1.90;;;;;;;;;;4961259;28;20214;-78
2023/09/21 08:23:46;;;;;;;1.67;1.40;;;;;;;;;;4964614;28;20223;-80
2023/09/21 08:26:13;;;;;;;1.92;1.45;;;;;;;;;;4965027;28;20233;-79
2023/09/21 08:28:39;;;;;;;2.00;1.30;;;;;;;;;;4950581;28;20343;-78
2023/09/21 08:31:05;;;;;;;1.55;1.40;;;;;;;;;;4948152;28;20221;-79
2023/09/21 08:33:31;;;;;;;1.70;1.60;;;;;;;;;;4950795;28;20741;-77
2023/09/21 08:35:56;;;;;;;1.60;1.50;;;;;;;;;;4960452;28;20586;-78
2023/09/21 08:38:23;;;;;;;2.67;1.38;;;;;;;;;;4938639;28;20222;-79
2023/09/21 08:40:50;;;;;;;2.50;1.35;;;;;;;;;;4972437;28;20226;-78
2023/09/21 08:43:24;;;;;;;2.25;1.50;;;;;;;;;;4918452;28;20226;-78
2023/09/21 08:45:50;;;;;;;1.63;1.50;;;;;;;;;;4935630;28;20263;-78
2023/09/21 08:48:22;;;;;;;11.02;1.80;;;;;;;;;;4919355;28;20269;-77
2023/09/21 08:50:50;;;;;;;1.88;1.58;;;;;;;;;;4941988;28;20241;-79
2023/09/21 08:53:21;;;;;;;1.60;1.48;;;;;;;;;;4958145;28;20713;-79
2023/09/21 08:55:52;;;;;;;1.98;1.70;;;;;;;;;;4939908;28;20227;-79
2023/09/21 08:58:24;;;;;;;2.45;1.40;;;;;;;;;;4951295;28;20296;-77
2023/09/21 09:00:54;;;;;;;1.60;1.50;;;;;;;;;;4958201;28;20725;-78
2023/09/21 09:03:26;;;;;;;1.73;1.60;;;;;;;;;;4939997;28;20273;-78
2023/09/21 09:05:55;;;;;;;1.67;1.50;;;;;;;;;;4931243;28;20990;-77
2023/09/21 09:08:24;;;;;;;2.30;1.60;;;;;;;;;;4948325;28;20225;-79
2023/09/21 09:10:53;;;;;;;3.10;1.25;;;;;;;;;;4920767;28;20256;-77
2023/09/21 09:13:30;;;;;;;1.50;1.40;;;;;;;;;;4933144;28;20300;-80
2023/09/21 09:15:58;;;;;;;1.70;1.35;;;;;;;;;;4949799;28;20226;-80
2023/09/21 09:18:24;;;;;;;1.40;1.20;;;;;;;;;;4952346;28;20592;-80
2023/09/21 09:20:50;;;;;;;4.63;1.55;;;;;;;;;;4956068;28;20228;-81
2023/09/21 09:23:23;;;;;;;2.00;1.35;;;;;;;;;;4935989;28;20215;-79
2023/09/21 09:25:51;;;;;;;1.52;1.42;;;;;;;;;;4958675;28;20238;-80
2023/09/21 09:28:16;;;;;;;1.48;1.35;;;;;;;;;;4966829;28;20249;-78
2023/09/21 09:30:45;;;;;;;1.83;1.58;;;;;;;;;;4938083;28;20235;-80
2023/09/21 09:33:12;;;;;;;1.63;1.25;;;;;;;;;;4963996;28;20274;-80
2023/09/21 09:35:45;;;;;;;1.83;1.35;;;;;;;;;;4950808;28;20223;-80
2023/09/21 09:38:10;;;;;;;1.20;1.10;;;;;;;;;;4939145;28;20584;-80
2023/09/21 09:40:37;;;;;;;1.67;1.40;;;;;;;;;;4967947;28;20321;-80
2023/09/21 09:43:05;;;;;;;1.63;1.52;;;;;;;;;;4957897;28;20273;-80
2023/09/21 09:45:30;;;;;;;1.35;1.10;;;;;;;;;;4941356;28;20250;-81
2023/09/21 09:48:01;;;;;;;1.50;1.38;;;;;;;;;;4955829;28;20282;-81
2023/09/21 09:50:34;;;;;;;1.30;1.20;;;;;;;;;;4947290;28;20230;-80
2023/09/21 09:53:06;;;;;;;1.63;1.25;;;;;;;;;;4967246;28;20427;-81
2023/09/21 09:55:36;;;;;;;2.08;1.50;;;;;;;;;;4964739;28;20242;-80
2023/09/21 09:58:08;;;;;;;1.35;1.25;;;;;;;;;;4945021;28;20227;-80
2023/09/21 10:00:35;;;;;;;2.45;1.60;;;;;;;;;;4955265;28;20235;-78
2023/09/21 10:03:03;;;;;;;1.58;1.48;;;;;;;;;;4950986;28;20313;-80
2023/09/21 10:05:31;;;;;;;1.95;1.40;;;;;;;;;;4927126;28;20235;-77
2023/09/21 10:08:00;;;;;;;1.65;1.55;;;;;;;;;;4973882;28;20241;-85
2023/09/21 10:10:49;;;;;;;1.50;1.40;;;;;;;;;;4958804;28;20233;-80
2023/09/21 10:13:16;;;;;;;1.98;1.50;;;;;;;;;;4940971;28;20278;-86
2023/09/21 10:15:48;;;;;;;1.75;1.50;;;;;;;;;;4926236;28;20214;-86
2023/09/21 10:18:29;;;;;;;1.42;1.13;;;;;;;;;;4936308;28;20687;-84
2023/09/21 10:20:59;;;;;;;1.85;1.50;;;;;;;;;;4941768;28;20226;-84
2023/09/21 10:23:27;;;;;;;1.92;1.50;;;;;;;;;;4957861;28;20222;-86
2023/09/21 10:25:55;;;;;;;1.65;1.25;;;;;;;;;;4949084;28;20223;-87
2023/09/21 10:28:29;;;;;;;1.70;1.13;;;;;;;;;;4956957;28;20231;-85
2023/09/21 10:31:06;;;;;;;1.40;1.27;;;;;;;;;;4972700;28;20234;-82
2023/09/21 10:33:58;;;;;;;1.92;1.15;;;;;;;;;;4966447;28;20253;-86
2023/09/21 10:36:29;;;;;;;1.42;1.30;;;;;;;;;;4959118;28;20739;-84
2023/09/21 10:39:09;;;;;;;2.38;1.30;;;;;;;;;;4967941;28;20230;-82
2023/09/21 10:41:35;;;;;;;1.40;1.30;;;;;;;;;;4966092;28;20238;-86
2023/09/21 10:44:02;;;;;;;2.63;1.17;;;;;;;;;;4941356;28;20214;-85
2023/09/21 10:46:34;;;;;;;2.60;1.00;;;;;;;;;;4937165;28;20222;-83
2023/09/21 10:49:06;;;;;;;2.55;1.10;;;;;;;;;;4939404;28;20230;-87
2023/09/21 10:51:35;;;;;;;2.75;1.30;;;;;;;;;;4960494;28;20321;-83
2023/09/21 10:54:06;;;;;;;2.00;1.40;;;;;;;;;;4940259;28;20214;-86
2023/09/21 10:56:37;;;;;;;1.33;1.10;;;;;;;;;;4943189;28;20279;-84
2023/09/21 10:59:07;;;;;;;2.25;1.33;;;;;;;;;;4962950;28;20233;-82
2023/09/21 11:01:32;;;;;;;2.45;1.15;;;;;;;;;;4965106;28;20649;-82
2023/09/21 11:03:58;;;;;;;1.83;1.35;;;;;;;;;;4955313;28;20227;-85
2023/09/21 11:06:25;;;;;;;11.50;1.40;;;;;;;;;;4953853;28;20214;-84
2023/09/21 11:08:52;;;;;;;1.10;1.00;;;;;;;;;;4936790;28;20269;-82
2023/09/21 11:11:21;;;;;;;1.50;1.20;;;;;;;;;;4939073;28;20210;-86
2023/09/21 11:13:55;;;;;;;2.28;1.48;;;;;;;;;;4946352;28;20237;-84
2023/09/21 11:16:26;;;;;;;2.70;1.50;;;;;;;;;;4953652;28;20457;-84
2023/09/21 11:18:53;;;;;;;2.45;2.08;;;;;;;;;;4939817;28;20239;-86
2023/09/21 11:21:23;;;;;;;2.28;1.23;;;;;;;;;;4958942;28;20297;-85
2023/09/21 11:23:49;;;;;;;2.65;2.38;;;;;;;;;;4930205;28;20225;-85
2023/09/21 11:26:19;;;;;;;3.60;2.08;;;;;;;;;;4956399;28;21063;-84
2023/09/21 11:28:47;;;;;;;2.47;2.10;;;;;;;;;;4939326;28;20245;-84
2023/09/21 11:31:15;;;;;;;3.70;2.05;;;;;;;;;;4940613;28;20288;-86
2023/09/21 11:33:43;;;;;;;2.47;2.22;;;;;;;;;;4936765;28;20347;-86
2023/09/21 11:36:08;;;;;;;4.97;2.58;;;;;;;;;;4951974;28;20218;-88
2023/09/21 11:38:35;;;;;;;2.60;2.17;;;;;;;;;;4950235;28;20234;-86
2023/09/21 11:41:05;;;;;;;2.90;1.30;;;;;;;;;;4920950;28;20221;-83
2023/09/21 11:43:31;;;;;;;1.90;1.10;;;;;;;;;;4953818;28;20735;-84
2023/09/21 11:45:56;;;;;;;3.75;1.70;;;;;;;;;;4954776;28;20230;-83
2023/09/21 11:48:26;;;;;;;1.52;1.33;;;;;;;;;;4965392;28;20278;-84
2023/09/21 11:50:54;;;;;;;1.63;1.10;;;;;;;;;;4946721;28;20214;-84
2023/09/21 11:53:22;;;;;;;1.77;1.52;;;;;;;;;;4945057;28;20649;-84
2023/09/21 11:55:50;;;;;;;2.83;1.38;;;;;;;;;;4944694;28;20226;-84
2023/09/21 11:58:20;;;;;;;1.55;1.30;;;;;;;;;;4939980;28;20734;-85
2023/09/21 12:01:15;;;;;;;1.23;1.13;;;;;;;;;;4932074;28;20223;-79
2023/09/21 12:03:37;;;;;;;1.15;1.02;;;;;;;;;;4945457;28;21177;-81
2023/09/21 12:06:06;;;;;;;2.38;1.17;;;;;;;;;;4951624;28;20222;-80
2023/09/21 12:08:32;;;;;;;2.30;1.35;;;;;;;;;;4951775;28;20235;-79
2023/09/21 12:10:57;;;;;;;5.57;1.63;;;;;;;;;;4943940;28;20224;-78
2023/09/21 12:13:28;;;;;;;1.83;1.20;;;;;;;;;;4934178;28;20285;-80
2023/09/21 12:15:58;;;;;;;2.55;1.35;;;;;;;;;;4950798;28;20277;-78
2023/09/21 12:18:27;;;;;;;2.92;1.27;;;;;;;;;;4955874;28;20222;-80
2023/09/21 12:21:00;;;;;;;1.98;1.48;;;;;;;;;;4937200;28;20321;-81
2023/09/21 12:23:25;;;;;;;1.98;1.42;;;;;;;;;;4955945;28;20656;-79
2023/09/21 12:25:51;;;;;;;1.35;1.25;;;;;;;;;;4933617;28;20316;-79
2023/09/21 12:28:19;;;;;;;1.33;1.10;;;;;;;;;;4961740;28;20571;-79
2023/09/21 12:30:48;;;;;;;1.20;1.10;;;;;;;;;;4949382;28;20272;-83
2023/09/21 12:33:15;;;;;;;1.42;1.33;;;;;;;;;;4948581;28;20649;-81
2023/09/21 12:35:45;;;;;;;2.25;1.40;;;;;;;;;;4934377;28;20222;-79
2023/09/21 12:38:16;;;;;;;1.80;1.30;;;;;;;;;;4929916;28;20265;-79
2023/09/21 12:40:44;;;;;;;1.60;1.27;;;;;;;;;;4970377;28;20781;-80
2023/09/21 12:43:19;;;;;;;2.13;1.40;;;;;;;;;;4963024;28;20225;-80
2023/09/21 12:45:44;;;;;;;2.15;1.08;;;;;;;;;;4960817;28;20238;-81
2023/09/21 12:48:11;;;;;;;1.30;1.20;;;;;;;;;;4970281;28;21759;-80
2023/09/21 12:50:37;;;;;;;1.10;1.10;;;;;;;;;;4971246;28;20238;-79
2023/09/21 12:53:06;;;;;;;2.40;1.55;;;;;;;;;;4953506;28;20233;-78
2023/09/21 12:55:33;;;;;;;1.15;1.10;;;;;;;;;;4953673;28;20278;-77
2023/09/21 12:57:59;;;;;;;1.70;1.45;;;;;;;;;;4973056;28;20230;-79
2023/09/21 13:00:29;;;;;;;2.20;1.50;;;;;;;;;;4962027;28;20609;-80
2023/09/21 13:02:56;;;;;;;1.20;1.10;;;;;;;;;;4966982;28;20214;-81
2023/09/21 13:05:22;;;;;;;1.85;1.30;;;;;;;;;;4927072;28;20249;-80
2023/09/21 13:07:51;;;;;;;1.67;1.23;;;;;;;;;;4944558;28;20746;-80
2023/09/21 13:10:18;;;;;;;7.95;1.58;;;;;;;;;;4951040;28;20238;-79
2023/09/21 13:12:47;;;;;;;1.88;1.35;;;;;;;;;;4961558;28;20315;-79
2023/09/21 13:15:14;;;;;;;1.73;1.50;;;;;;;;;;4947610;28;20226;-79
2023/09/21 13:17:40;;;;;;;1.23;1.08;;;;;;;;;;4918982;28;20318;-81
2023/09/21 13:20:06;;;;;;;1.35;1.20;;;;;;;;;;4949173;28;20723;-83
2023/09/21 13:22:34;;;;;;;1.83;1.52;;;;;;;;;;4963822;28;20241;-79
2023/09/21 13:24:59;;;;;;;1.20;1.10;;;;;;;;;;4949377;28;20242;-81
2023/09/21 13:27:25;;;;;;;1.45;1.35;;;;;;;;;;4955855;28;20603;-78
2023/09/21 13:29:53;;;;;;;1.38;1.15;;;;;;;;;;4935385;28;20284;-78
2023/09/21 13:32:21;;;;;;;3.40;1.52;;;;;;;;;;4966602;28;20214;-78
2023/09/21 13:34:50;;;;;;;1.58;1.38;;;;;;;;;;4931566;28;20236;-80
2023/09/21 13:37:16;;;;;;;1.17;1.05;;;;;;;;;;4961094;28;20309;-78
2023/09/21 13:39:47;;;;;;;1.95;1.25;;;;;;;;;;4938362;28;20315;-77
2023/09/21 13:42:14;;;;;;;2.03;1.33;;;;;;;;;;4938302;28;20255;-78
2023/09/21 13:44:41;;;;;;;1.38;1.25;;;;;;;;;;4954858;28;20226;-81
2023/09/21 13:47:06;;;;;;;1.50;1.08;;;;;;;;;;4948513;28;20279;-81
2023/09/21 13:49:35;;;;;;;4.95;1.35;;;;;;;;;;4974775;28;20249;-81
2023/09/21 13:52:02;;;;;;;2.78;1.58;;;;;;;;;;4962784;28;20214;-81
2023/09/21 13:54:29;;;;;;;1.13;1.00;;;;;;;;;;4942909;28;20214;-77
2023/09/21 13:56:55;;;;;;;2.78;1.27;;;;;;;;;;4941846;28;20292;-81
2023/09/21 13:59:25;;;;;;;3.40;1.35;;;;;;;;;;4940568;28;20218;-78
2023/09/21 14:01:53;;;;;;;1.52;1.35;;;;;;;;;;4964033;28;20221;-81
2023/09/21 14:04:21;;;;;;;2.53;1.27;;;;;;;;;;4970591;28;20233;-79
2023/09/21 14:06:47;;;;;;;1.33;1.23;;;;;;;;;;4973829;28;20237;-78
2023/09/21 14:09:12;;;;;;;1.30;1.20;;;;;;;;;;4971320;28;20233;-80
2023/09/21 14:11:39;;;;;;;5.82;1.23;;;;;;;;;;4945093;28;20234;-81
2023/09/21 14:14:13;;;;;;;1.67;1.25;;;;;;;;;;4963792;28;20432;-80
2023/09/21 14:16:39;;;;;;;1.42;1.20;;;;;;;;;;4966795;28;20226;-81
2023/09/21 14:19:04;;;;;;;1.45;1.35;;;;;;;;;;4974878;28;20234;-79
2023/09/21 14:21:32;;;;;;;1.90;1.63;;;;;;;;;;4945601;28;20728;-77
2023/09/21 14:23:58;;;;;;;2.53;1.55;;;;;;;;;;4975652;28;20277;-79
2023/09/21 14:26:23;;;;;;;1.20;1.10;;;;;;;;;;4965655;28;20253;-80
2023/09/21 14:28:50;;;;;;;1.40;1.30;;;;;;;;;;4968546;28;20322;-78
2023/09/21 14:31:15;;;;;;;1.50;1.40;;;;;;;;;;4945965;28;20326;-81
2023/09/21 14:33:41;;;;;;;1.30;1.20;;;;;;;;;;4979111;28;20250;-81
2023/09/21 14:36:08;;;;;;;3.47;1.27;;;;;;;;;;4978694;28;20198;-80
2023/09/21 14:38:36;;;;;;;1.77;1.00;;;;;;;;;;4971368;28;20226;-80
2023/09/21 14:41:04;;;;;;;1.98;1.30;;;;;;;;;;4955411;28;20226;-80
2023/09/21 14:43:39;;;;;;;4.03;1.40;;;;;;;;;;4968041;28;20226;-80
2023/09/21 14:46:05;;;;;;;1.67;1.23;;;;;;;;;;4967257;28;20286;-80
2023/09/21 14:48:30;;;;;;;1.60;1.50;;;;;;;;;;4970790;28;20325;-80
2023/09/21 14:50:58;;;;;;;1.48;1.20;;;;;;;;;;4971055;28;20253;-80
2023/09/21 14:53:25;;;;;;;1.83;1.30;;;;;;;;;;4972443;28;20226;-79
2023/09/21 14:55:52;;;;;;;1.40;1.30;;;;;;;;;;4973966;28;20238;-80
2023/09/21 14:58:19;;;;;;;1.42;1.33;;;;;;;;;;4970278;28;20285;-80
2023/09/21 15:00:46;;;;;;;1.42;1.33;;;;;;;;;;4972878;28;20223;-79